Time;durP1;ratioP1;P1;durP2;ratioP2;P2;SDS_P1;SDS_P2;PMS_P1;PMS_P2;Temp;Humidity;BMP_temperature;BMP_pressure;BME280_temperature;BME280_humidity;BME280_pressure;Samples;Min_cycle;Max_cycle;Signal;HPM_P1;HPM_P2
2023/07/03 00:01:19;;;;;;;;;16.75;15.00;;;;;26.20;62.92;100287.84;146602;572;46012;-64
2023/07/03 00:04:11;;;;;;;;;16.75;16.00;;;;;26.22;63.98;100286.00;146598;692;46016;-64
2023/07/03 00:07:06;;;;;;;;;13.25;12.75;;;;;26.22;63.06;100293.97;146603;587;46021;-64
2023/07/03 00:10:04;;;;;;;;;12.75;12.50;;;;;26.24;63.42;100292.19;146597;648;47012;-64
2023/07/03 00:13:06;;;;;;;;;13.50;12.25;;;;;26.26;62.54;100293.03;146599;572;47020;-64
2023/07/03 00:16:05;;;;;;;;;15.75;13.50;;;;;26.27;62.31;100289.47;146594;593;47921;-64
2023/07/03 00:18:57;;;;;;;;;15.50;14.00;;;;;26.30;63.18;100285.00;146599;656;46048;-64
2023/07/03 00:21:51;;;;;;;;;14.75;14.00;;;;;26.26;62.71;100286.81;146598;579;46030;-66
2023/07/03 00:24:49;;;;;;;;;15.75;13.50;;;;;26.19;61.85;100290.50;146602;679;47036;-64
2023/07/03 00:27:53;;;;;;;;;11.67;11.00;;;;;26.11;61.75;100297.78;146595;668;47015;-65
2023/07/03 00:30:56;;;;;;;;;13.67;13.67;;;;;23.41;60.48;99848.91;146600;625;47010;-65
2023/07/03 00:33:47;;;;;;;;;12.33;11.67;;;;;25.95;61.58;100291.84;146597;573;46920;-65
2023/07/03 00:36:49;;;;;;;;;14.25;13.00;;;;;25.89;60.84;100299.94;146598;613;46021;-65
2023/07/03 00:39:41;;;;;;;;;15.25;15.25;;;;;25.83;62.24;100300.94;146596;642;47012;-65
2023/07/03 00:42:37;;;;;;;;;13.67;13.00;;;;;25.82;61.57;100314.25;146603;676;46010;-66
2023/07/03 00:45:47;;;;;;;;;14.00;13.50;;;;;25.80;61.22;100312.47;146593;642;47920;-64
2023/07/03 00:48:54;;;;;;;;;12.67;12.67;;;;;25.82;60.42;100314.25;146596;569;47010;-64
2023/07/03 00:51:53;;;;;;;;;17.00;14.50;;;;;25.79;59.84;100316.03;146595;717;46016;-64
2023/07/03 00:54:52;;;;;;;;;12.50;11.00;;;;;25.75;59.67;100309.00;146597;565;47021;-64
2023/07/03 00:57:56;;;;;;;;;13.33;13.00;;;;;25.63;60.20;100317.19;146597;653;46017;-65
2023/07/03 01:01:03;;;;;;;;;12.00;11.67;;;;;25.42;60.72;100310.47;146602;575;47020;-64
2023/07/03 01:04:18;;;;;;;;;16.33;13.00;;;;;25.24;60.81;100305.47;146599;589;46032;-64
2023/07/03 01:07:24;;;;;;;;;14.25;14.00;;;;;25.09;61.19;100301.22;146598;717;46916;-64
2023/07/03 01:10:25;;;;;;;;;17.25;14.50;;;;;24.97;61.52;100302.28;146599;565;46016;-64
2023/07/03 01:13:36;;;;;;;;;;;;;;;;;;;;;
2023/07/03 01:16:30;;;;;;;;;15.75;14.25;;;;;24.80;63.31;100299.88;146597;593;47014;-65
2023/07/03 01:19:46;;;;;;;;;17.75;15.75;;;;;24.77;63.67;100299.91;146601;574;46021;-66
2023/07/03 01:22:56;;;;;;;;;15.33;14.00;;;;;24.74;63.71;100299.09;146598;581;46016;-64
2023/07/03 01:25:58;;;;;;;;;13.25;12.00;;;;;24.65;63.19;100305.37;146602;634;46020;-65
2023/07/03 01:29:02;;;;;;;;;16.75;15.00;;;;;24.59;63.49;100302.81;146596;717;47012;-65
2023/07/03 01:32:20;;;;;;;;;14.25;13.50;;;;;24.55;64.25;100309.03;146601;692;46020;-64
2023/07/03 01:35:33;;;;;;;;;13.75;13.25;;;;;21.68;63.61;99818.31;146596;576;46920;-64
2023/07/03 01:38:49;;;;;;;;;16.00;13.75;;;;;24.55;64.12;100295.78;146599;693;46010;-65
2023/07/03 01:41:57;;;;;;;;;15.00;14.25;;;;;24.62;64.69;100300.12;146597;617;46016;-65
2023/07/03 01:44:49;;;;;;;;;15.75;14.75;;;;;24.71;65.18;100312.38;146602;569;46010;-64
2023/07/03 01:47:44;;;;;;;;;16.50;14.00;;;;;24.82;64.59;100313.97;146596;716;47012;-66
2023/07/03 01:50:36;;;;;;;;;15.00;13.25;;;;;24.91;64.67;100309.44;146602;604;46010;-67
2023/07/03 01:53:48;;;;;;;;;14.25;13.00;;;;;24.97;63.57;100319.97;146596;569;46920;-65
2023/07/03 01:57:02;;;;;;;;;13.33;12.33;;;;;25.02;63.94;100319.00;146600;589;47010;-65
2023/07/03 02:00:14;;;;;;;;;12.75;12.00;;;;;25.10;63.75;100326.84;146598;570;46016;-64
2023/07/03 02:03:16;;;;;;;;;14.25;13.00;;;;;25.16;63.19;100328.56;146600;573;46012;-65
2023/07/03 02:06:35;;;;;;;;;17.50;15.75;;;;;25.17;62.65;100331.22;146596;687;46017;-65
2023/07/03 02:09:31;;;;;;;;;14.00;13.50;;;;;25.14;62.53;100330.34;146601;641;46915;-66
2023/07/03 02:12:27;;;;;;;;;15.25;13.00;;;;;25.06;62.49;100333.97;146597;572;47013;-66
2023/07/03 02:15:21;;;;;;;;;15.00;14.00;;;;;25.01;63.02;100334.94;146599;565;46020;-66
2023/07/03 02:18:17;;;;;;;;;12.25;12.25;;;;;25.03;63.43;100336.66;146596;611;47012;-64
2023/07/03 02:21:15;;;;;;;;;14.00;12.75;;;;;25.08;62.24;100331.31;146598;571;47010;-64
2023/07/03 02:24:13;;;;;;;;;14.00;11.00;;;;;25.04;62.49;100329.56;146598;592;47014;-67
2023/07/03 02:27:29;;;;;;;;;17.00;14.00;;;;;22.36;62.50;99886.31;146601;654;46020;-66
2023/07/03 02:30:30;;;;;;;;;16.33;14.67;;;;;24.85;64.47;100328.97;146593;584;47012;-66
2023/07/03 02:33:24;;;;;;;;;14.25;14.25;;;;;24.75;65.07;100333.50;146600;611;47010;-65
2023/07/03 02:36:29;;;;;;;;;15.00;12.50;;;;;24.70;64.20;100335.34;146597;580;46920;-64
2023/07/03 02:39:24;;;;;;;;;13.00;12.25;;;;;24.68;65.25;100337.16;146600;699;46033;-64
2023/07/03 02:42:21;;;;;;;;;13.75;12.25;;;;;24.69;65.45;100340.69;146595;599;46017;-65
2023/07/03 02:45:24;;;;;;;;;17.25;14.25;;;;;24.73;65.04;100352.97;146600;579;46010;-66
2023/07/03 02:48:21;;;;;;;;;13.67;13.00;;;;;24.72;65.01;100353.91;146598;576;47013;-67
2023/07/03 02:51:25;;;;;;;;;16.75;13.25;;;;;24.69;64.78;100352.16;146601;576;46010;-67
2023/07/03 02:54:21;;;;;;;;;18.25;16.25;;;;;24.66;64.76;100361.00;146596;677;47012;-66
2023/07/03 02:57:23;;;;;;;;;14.25;14.25;;;;;24.64;64.68;100364.56;146598;712;47011;-66
2023/07/03 03:00:27;;;;;;;;;15.75;14.00;;;;;24.62;64.46;100358.44;146597;681;46016;-68
2023/07/03 03:03:38;;;;;;;;;17.25;14.25;;;;;24.58;64.63;100362.00;146601;576;46020;-68
2023/07/03 03:06:49;;;;;;;;;15.25;12.75;;;;;24.58;65.24;100365.56;146597;682;47014;-66
2023/07/03 03:09:49;;;;;;;;;16.50;14.00;;;;;24.58;65.79;100359.34;146600;698;46020;-67
2023/07/03 03:12:47;;;;;;;;;14.75;13.75;;;;;24.62;65.42;100367.25;146598;638;46017;-66
2023/07/03 03:15:43;;;;;;;;;16.00;14.25;;;;;24.66;66.13;100366.31;146602;588;46012;-66
2023/07/03 03:18:38;;;;;;;;;15.25;15.00;;;;;24.73;65.90;100371.53;146596;650;46017;-66
2023/07/03 03:21:34;;;;;;;;;16.75;15.00;;;;;24.78;64.78;100359.13;146596;651;46020;-65
2023/07/03 03:24:37;;;;;;;;;15.00;12.50;;;;;24.86;65.00;100355.47;146596;569;47012;-65
2023/07/03 03:27:34;;;;;;;;;15.00;13.00;;;;;24.95;64.90;100372.16;146601;573;46010;-64
2023/07/03 03:30:27;;;;;;;;;16.50;14.25;;;;;25.02;64.81;100371.19;146598;652;46014;-63
2023/07/03 03:33:33;;;;;;;;;16.25;13.00;;;;;25.02;64.83;100371.19;146600;592;47020;-65
2023/07/03 03:36:33;;;;;;;;;15.00;14.50;;;;;25.04;65.21;100378.19;146597;570;47012;-65
2023/07/03 03:39:28;;;;;;;;;15.50;13.50;;;;;25.08;65.03;100381.72;146597;618;47010;-66
2023/07/03 03:42:20;;;;;;;;;17.00;15.25;;;;;25.15;64.46;100379.87;146591;693;48920;-67
2023/07/03 03:45:16;;;;;;;;;20.00;16.50;;;;;25.14;64.83;100388.72;146600;579;46020;-67
2023/07/03 03:48:14;;;;;;;;;24.00;18.00;;;;;25.07;64.16;100385.25;146597;571;47016;-67
2023/07/03 03:51:15;;;;;;;;;14.25;13.75;;;;;25.03;64.30;100379.09;146600;680;46020;-66
2023/07/03 03:54:11;;;;;;;;;13.75;13.75;;;;;25.02;64.67;100381.81;146593;571;47001;-66
2023/07/03 03:57:05;;;;;;;;;16.00;15.00;;;;;25.03;64.76;100386.19;146599;570;47010;-67
2023/07/03 03:59:56;;;;;;;;;16.25;15.75;;;;;25.09;64.29;100386.97;146597;618;47012;-66
2023/07/03 04:03:04;;;;;;;;;17.75;14.50;;;;;25.16;63.85;100394.91;146600;601;46020;-66
2023/07/03 04:05:59;;;;;;;;;17.50;15.75;;;;;25.18;64.70;100386.03;146598;643;47012;-66
2023/07/03 04:08:56;;;;;;;;;14.75;14.00;;;;;25.23;64.67;100383.28;146602;577;47010;-65
2023/07/03 04:11:52;;;;;;;;;19.75;18.00;;;;;25.26;64.47;100394.72;146595;621;46016;-65
2023/07/03 04:14:47;;;;;;;;;18.50;16.75;;;;;25.21;64.75;100401.91;146598;659;47012;-66
2023/07/03 04:17:42;;;;;;;;;16.50;14.75;;;;;25.14;65.64;100402.87;146595;606;46920;-66
2023/07/03 04:20:41;;;;;;;;;15.75;14.75;;;;;25.14;65.75;100400.25;146599;591;46020;-64
2023/07/03 04:23:39;;;;;;;;;15.00;15.00;;;;;25.18;66.45;100409.91;146594;582;46016;-65
2023/07/03 04:26:42;;;;;;;;;19.75;16.00;;;;;25.20;66.53;100408.09;146602;621;47011;-65
2023/07/03 04:29:49;;;;;;;;;15.25;15.00;;;;;25.26;65.82;100415.09;146596;652;47014;-65
2023/07/03 04:33:06;;;;;;;;;18.25;18.25;;;;;25.34;66.62;100414.09;146602;574;46020;-66
2023/07/03 04:35:58;;;;;;;;;19.00;14.75;;;;;25.42;67.20;100426.34;146595;598;47010;-65
2023/07/03 04:39:00;;;;;;;;;16.00;15.00;;;;;25.44;67.30;100420.13;146598;578;47010;-63
2023/07/03 04:41:56;;;;;;;;;14.25;13.75;;;;;25.48;67.38;100427.19;146597;671;46016;-64
2023/07/03 04:45:00;;;;;;;;;;;;;;;;;;;;;
2023/07/03 04:47:58;;;;;;;;;14.75;13.50;;;;;25.62;65.97;100434.91;146597;674;46017;-64
2023/07/03 04:50:52;;;;;;;;;16.25;16.00;;;;;25.68;65.73;100436.59;146598;565;47010;-64
2023/07/03 04:53:54;;;;;;;;;14.50;14.00;;;;;25.77;66.74;100437.34;146597;576;46026;-65
2023/07/03 04:56:52;;;;;;;;;14.75;14.75;;;;;25.91;64.57;100441.56;146600;678;46010;-64
2023/07/03 04:59:46;;;;;;;;;18.00;17.75;;;;;26.00;65.12;100426.34;146599;584;46012;-63
2023/07/03 05:02:40;;;;;;;;;17.75;15.75;;;;;26.08;65.27;100442.19;146600;588;47020;-64
2023/07/03 05:05:37;;;;;;;;;13.50;12.75;;;;;26.16;65.59;100442.91;146598;636;46016;-65
2023/07/03 05:08:35;;;;;;;;;13.50;13.00;;;;;26.25;65.95;100436.56;146604;713;45020;-63
2023/07/03 05:11:29;;;;;;;;;15.50;13.75;;;;;26.37;65.98;100438.13;146596;588;47012;-63
2023/07/03 05:14:35;;;;;;;;;14.00;12.00;;;;;26.46;65.12;100451.25;146625;572;45020;-64
2023/07/03 05:17:37;;;;;;;;;15.50;14.00;;;;;26.54;65.00;100446.69;146623;656;45916;-63
2023/07/03 05:20:35;;;;;;;;;12.50;11.00;;;;;26.60;66.07;100443.03;146621;616;46010;-63
2023/07/03 05:23:32;;;;;;;;;13.25;11.50;;;;;26.66;66.41;100442.94;146620;571;45916;-64
2023/07/03 05:26:24;;;;;;;;;14.50;12.50;;;;;26.73;66.52;100447.25;146628;635;46010;-63
2023/07/03 05:29:16;;;;;;;;;13.50;12.50;;;;;26.78;65.77;100449.78;146625;569;46012;-63
2023/07/03 05:32:19;;;;;;;;;17.50;15.75;;;;;26.82;65.84;100455.03;146629;695;45021;-63
2023/07/03 05:35:14;;;;;;;;;17.00;14.00;;;;;26.88;64.24;100448.69;146618;670;46016;-64
2023/07/03 05:38:07;;;;;;;;;18.25;15.25;;;;;26.92;63.57;100459.25;146627;615;45020;-65
2023/07/03 05:40:59;;;;;;;;;16.00;15.00;;;;;26.98;64.44;100460.94;146618;696;46017;-65
2023/07/03 05:44:03;;;;;;;;;17.75;16.25;;;;;27.04;64.62;100466.12;146625;688;46010;-64
2023/07/03 05:46:56;;;;;;;;;14.67;13.67;;;;;27.09;64.21;100468.69;146627;567;45022;-63
2023/07/03 05:49:52;;;;;;;;;12.33;12.00;;;;;27.15;64.25;100466.78;146621;582;47010;-63
2023/07/03 05:52:48;;;;;;;;;14.50;14.00;;;;;27.22;64.63;100467.53;146622;601;46012;-64
2023/07/03 05:55:54;;;;;;;;;22.00;21.50;;;;;27.29;64.19;100468.28;146628;590;46010;-64
2023/07/03 05:58:46;;;;;;;;;18.50;17.00;;;;;27.29;65.41;100482.50;146624;565;46025;-65
2023/07/03 06:01:52;;;;;;;;;12.75;12.00;;;;;27.20;66.02;100479.12;146626;596;47010;-65
2023/07/03 06:04:52;;;;;;;;;12.33;11.33;;;;;27.09;66.72;100484.63;146621;672;45916;-67
2023/07/03 06:07:48;;;;;;;;;15.75;13.75;;;;;27.05;67.17;100483.84;146623;570;47010;-66
2023/07/03 06:10:51;;;;;;;;;14.75;14.75;;;;;27.28;65.85;100485.16;146620;570;46016;-66
2023/07/03 06:13:46;;;;;;;;;14.50;14.00;;;;;27.61;64.39;100481.75;146603;617;47010;-67
2023/07/03 06:16:41;;;;;;;;;14.00;12.75;;;;;27.95;63.46;100485.47;146598;581;46017;-65
2023/07/03 06:19:36;;;;;;;;;13.67;13.00;;;;;28.27;61.56;100482.00;146599;617;46033;-65
2023/07/03 06:22:31;;;;;;;;;14.25;13.50;;;;;28.57;60.19;100488.34;146599;622;46918;-64
2023/07/03 06:25:26;;;;;;;;;13.75;12.25;;;;;28.76;58.24;100488.72;146599;598;47021;-63
2023/07/03 06:28:27;;;;;;;;;13.00;12.75;;;;;28.82;59.22;100487.66;146595;569;47016;-65
2023/07/03 06:31:22;;;;;;;;;13.33;12.67;;;;;28.73;59.20;100495.00;146599;696;47012;-65
2023/07/03 06:34:20;;;;;;;;;13.00;12.75;;;;;28.63;59.51;100493.53;146595;697;47012;-66
2023/07/03 06:37:20;;;;;;;;;14.00;13.75;;;;;28.53;59.02;100503.53;146600;563;47020;-67
2023/07/03 06:40:25;;;;;;;;;13.67;13.67;;;;;28.51;59.24;100502.72;146596;591;47016;-67
2023/07/03 06:43:23;;;;;;;;;13.25;13.25;;;;;28.51;57.29;100510.72;146601;698;46020;-65
2023/07/03 06:46:16;;;;;;;;;12.33;11.00;;;;;28.49;56.87;100509.88;146597;579;47017;-67
2023/07/03 06:49:22;;;;;;;;;17.75;16.50;;;;;28.54;60.69;100507.97;146598;631;46030;-66
2023/07/03 06:52:16;;;;;;;;;14.75;12.00;;;;;28.68;58.90;100522.72;146594;572;47014;-68
2023/07/03 06:55:28;;;;;;;;;15.25;15.00;;;;;28.75;57.89;100514.53;146600;643;47010;-67
2023/07/03 06:58:23;;;;;;;;;15.50;14.00;;;;;28.76;58.43;100510.06;146593;675;47014;-67
2023/07/03 07:01:28;;;;;;;;;14.50;13.25;;;;;28.71;58.68;100518.19;146603;653;46010;-68
2023/07/03 07:04:27;;;;;;;;;16.00;15.75;;;;;27.47;51.83;100310.75;146597;612;46014;-67
2023/07/03 07:07:22;;;;;;;;;14.67;12.67;;;;;28.52;48.89;100496.47;146601;564;47013;-67
2023/07/03 07:10:39;;;;;;;;;14.50;12.25;;;;;28.46;51.10;100496.62;146599;620;46016;-67
2023/07/03 07:13:31;;;;;;;;;12.00;11.33;;;;;28.45;48.57;100499.34;146609;566;47010;-68
2023/07/03 07:16:51;;;;;;;;;18.50;13.25;;;;;28.42;52.83;100478.97;146622;635;46014;-66
2023/07/03 07:19:49;;;;;;;;;13.25;13.25;;;;;28.52;52.34;100492.94;146628;569;45012;-67
2023/07/03 07:22:47;;;;;;;;;19.67;16.33;;;;;28.82;52.41;100499.22;146622;566;46015;-68
2023/07/03 07:25:42;;;;;;;;;14.50;13.00;;;;;29.15;52.96;100496.53;146625;582;46020;-67
2023/07/03 07:28:39;;;;;;;;;15.75;14.25;;;;;29.38;50.68;100485.19;146617;576;46016;-69
2023/07/03 07:31:32;;;;;;;;;13.00;12.25;;;;;29.44;52.05;100491.22;146627;606;45918;-67
2023/07/03 07:34:49;;;;;;;;;14.50;14.50;;;;;29.60;55.34;100493.44;146621;569;46014;-66
2023/07/03 07:37:50;;;;;;;;;11.75;11.75;;;;;29.79;55.56;100501.78;146624;682;46010;-68
2023/07/03 07:40:33;;;;;;;;;14.25;13.00;;;;;29.82;55.21;100494.53;146703;564;46012;-66
2023/07/03 07:43:32;;;;;;;;;14.50;14.50;;;;;29.90;54.43;100499.62;146609;640;46016;-66
2023/07/03 07:46:27;;;;;;;;;15.25;13.25;;;;;30.02;52.56;100495.69;146613;708;46021;-65
2023/07/03 07:49:23;;;;;;;;;13.75;12.50;;;;;30.22;52.98;100501.28;146610;624;47012;-65
2023/07/03 07:52:28;;;;;;;;;15.25;14.50;;;;;30.36;51.62;100507.03;146613;663;47010;-65
2023/07/03 07:55:24;;;;;;;;;13.50;12.00;;;;;30.49;51.29;100503.94;146609;642;47014;-66
2023/07/03 07:58:14;;;;;;;;;18.50;14.00;;;;;30.56;53.64;100508.13;146699;564;46014;-66
2023/07/03 08:01:10;;;;;;;;;15.25;11.75;;;;;30.70;53.54;100503.19;146616;688;46016;-65
2023/07/03 08:04:02;;;;;;;;;13.50;12.25;;;;;30.87;52.83;100502.59;146616;614;46020;-65
2023/07/03 08:06:54;;;;;;;;;13.75;13.50;;;;;31.03;52.07;100505.59;146608;635;47016;-66
2023/07/03 08:09:49;;;;;;;;;18.00;15.00;;;;;31.18;51.89;100507.69;146614;563;46010;-66
2023/07/03 08:12:52;;;;;;;;;16.00;14.75;;;;;31.29;52.04;100505.50;146610;630;47016;-66
2023/07/03 08:15:51;;;;;;;;;9.50;8.50;;;;;31.34;50.30;100504.47;146616;606;46010;-65
2023/07/03 08:18:50;;;;;;;;;15.00;13.50;;;;;31.35;47.03;100507.09;146614;579;47016;-65
2023/07/03 08:21:55;;;;;;;;;13.50;12.00;;;;;31.38;50.90;100511.47;146613;606;46010;-65
2023/07/03 08:25:05;;;;;;;;;14.50;12.00;;;;;31.03;50.16;100452.06;146606;646;46016;-66
2023/07/03 08:27:57;;;;;;;;;12.75;12.00;;;;;31.39;46.83;100505.16;146615;674;46014;-66
2023/07/03 08:31:01;;;;;;;;;12.33;12.33;;;;;31.46;46.95;100502.19;146611;641;47014;-66
2023/07/03 08:34:08;;;;;;;;;12.25;11.50;;;;;31.63;49.54;100508.72;146611;585;47020;-67
2023/07/03 08:37:25;;;;;;;;;12.75;12.00;;;;;31.82;50.16;100516.88;146611;602;46016;-66
2023/07/03 08:40:25;;;;;;;;;13.75;11.50;;;;;31.85;47.74;100520.31;146614;569;47010;-66
2023/07/03 08:43:22;;;;;;;;;15.75;14.25;;;;;31.83;49.01;100516.81;146611;616;47012;-66
2023/07/03 08:46:45;;;;;;;;;16.25;13.25;;;;;31.79;50.03;100527.75;146614;619;46041;-65
2023/07/03 08:49:51;;;;;;;;;12.25;10.50;;;;;31.83;48.54;100532.91;146612;702;46016;-66
2023/07/03 08:52:57;;;;;;;;;13.75;13.00;;;;;31.74;48.58;100534.12;146614;615;46021;-65
2023/07/03 08:56:29;;;;;;;;;13.50;13.50;;;;;31.71;49.17;100531.59;146610;588;46915;-65
2023/07/03 08:59:33;;;;;;;;;13.00;12.33;;;;;31.58;47.70;100535.69;146614;666;46021;-65
2023/07/03 09:03:13;;;;;;;;;15.75;14.00;;;;;31.47;48.80;100536.09;146695;564;46012;-67
2023/07/03 09:06:48;;;;;;;;;16.50;14.50;;;;;31.51;47.42;100526.13;146616;658;46016;-66
2023/07/03 09:10:22;;;;;;;;;14.00;11.75;;;;;31.63;49.31;100533.69;146615;602;46020;-66
2023/07/03 09:13:39;;;;;;;;;13.25;12.50;;;;;31.65;46.06;100536.31;146610;698;47013;-65
2023/07/03 09:16:46;;;;;;;;;14.00;12.00;;;;;31.58;45.31;100537.47;146610;563;48010;-66
2023/07/03 09:19:47;;;;;;;;;13.00;12.75;;;;;31.61;46.93;100529.31;146611;711;47016;-66
2023/07/03 09:23:29;;;;;;;;;15.25;15.25;;;;;31.65;46.61;100526.47;146613;634;47010;-67
2023/07/03 09:26:53;;;;;;;;;17.00;16.25;;;;;31.62;49.10;100529.28;146606;654;46017;-65
2023/07/03 09:29:50;;;;;;;;;13.25;12.75;;;;;31.73;46.69;100537.75;146615;637;46012;-65
2023/07/03 09:32:47;;;;;;;;;14.75;14.50;;;;;31.74;46.59;100544.00;146609;580;47012;-66
2023/07/03 09:36:05;;;;;;;;;14.67;13.67;;;;;31.63;47.54;100540.88;146613;611;45021;-68
2023/07/03 09:39:01;;;;;;;;;14.50;13.25;;;;;31.64;47.77;100542.59;146610;591;46012;-66
2023/07/03 09:42:12;;;;;;;;;15.00;13.50;;;;;31.68;46.12;100541.53;146610;641;47010;-65
2023/07/03 09:45:11;;;;;;;;;12.00;10.75;;;;;31.71;47.19;100557.50;146611;702;46016;-65
2023/07/03 09:48:23;;;;;;;;;14.00;13.00;;;;;31.67;45.07;100556.75;146612;557;46021;-65
2023/07/03 09:51:34;;;;;;;;;13.00;12.00;;;;;31.50;44.46;100556.56;146613;626;46017;-65
2023/07/03 09:54:49;;;;;;;;;15.25;13.75;;;;;31.40;44.48;100557.81;146612;664;46028;-67
2023/07/03 09:57:48;;;;;;;;;14.00;12.50;;;;;31.29;42.66;100560.88;146603;576;47012;-67
2023/07/03 10:00:54;;;;;;;;;14.33;13.00;;;;;31.17;43.23;100556.84;146612;591;46020;-66
2023/07/03 10:03:46;;;;;;;;;17.25;15.25;;;;;31.09;43.66;100552.69;146608;576;46017;-67
2023/07/03 10:06:35;;;;;;;;;11.25;11.00;;;;;31.16;44.61;100556.91;146710;600;46014;-67
2023/07/03 10:09:36;;;;;;;;;12.00;11.00;;;;;30.59;44.74;100425.06;146617;628;46016;-67
2023/07/03 10:13:07;;;;;;;;;14.00;13.00;;;;;31.62;45.89;100552.50;146622;604;46010;-68
2023/07/03 10:16:05;;;;;;;;;12.75;12.50;;;;;31.94;42.74;100560.19;146617;618;47013;-68
2023/07/03 10:19:06;;;;;;;;;16.50;15.75;;;;;32.17;42.06;100564.62;146622;565;46020;-67
2023/07/03 10:21:48;;;;;;;;;12.25;12.00;;;;;32.30;41.05;100566.81;146701;564;46012;-68
2023/07/03 10:24:41;;;;;;;;;12.25;10.50;;;;;32.36;40.26;100569.22;146612;631;46016;-66
2023/07/03 10:27:36;;;;;;;;;11.67;11.00;;;;;32.29;38.22;100570.44;146616;586;47010;-67
2023/07/03 10:30:37;;;;;;;;;10.33;8.67;;;;;32.13;40.88;100567.50;146611;642;47012;-67
2023/07/03 10:33:36;;;;;;;;;8.67;8.67;;;;;32.08;41.88;100559.63;146620;575;46020;-68
2023/07/03 10:36:46;;;;;;;;;9.67;8.67;;;;;32.12;40.16;100571.09;146619;629;46016;-66
2023/07/03 10:39:45;;;;;;;;;10.00;9.00;;;;;32.12;38.97;100571.09;146698;564;46022;-66
2023/07/03 10:42:52;;;;;;;;;9.00;9.00;;;;;32.13;39.65;100573.75;146614;655;47012;-67
2023/07/03 10:45:49;;;;;;;;;9.67;9.67;;;;;32.18;39.14;100565.50;146620;654;47020;-67
2023/07/03 10:48:48;;;;;;;;;10.67;9.33;;;;;32.18;39.63;100565.50;146613;569;46016;-67
2023/07/03 10:52:10;;;;;;;;;11.00;11.00;;;;;32.20;41.23;100558.25;146616;622;46020;-67
2023/07/03 10:55:31;;;;;;;;;11.67;10.67;;;;;32.35;41.52;100562.13;146604;639;46013;-68
2023/07/03 10:58:59;;;;;;;;;11.67;10.67;;;;;32.46;40.30;100569.75;146611;580;46014;-67
2023/07/03 11:02:17;;;;;;;;;9.00;8.00;;;;;32.48;38.93;100563.38;146606;610;46017;-66
2023/07/03 11:05:35;;;;;;;;;9.67;9.00;;;;;32.53;40.75;100564.09;146620;569;46020;-68
2023/07/03 11:08:53;;;;;;;;;10.00;10.00;;;;;32.50;41.54;100566.88;146612;623;46016;-66
2023/07/03 11:12:20;;;;;;;;;13.00;11.00;;;;;31.67;41.34;100430.78;146614;647;46020;-66
2023/07/03 11:15:56;;;;;;;;;14.00;11.50;;;;;32.47;42.02;100550.91;146606;614;46016;-67
2023/07/03 11:19:23;;;;;;;;;13.67;12.00;;;;;32.62;41.55;100544.91;146609;700;46021;-67
2023/07/03 11:22:32;;;;;;;;;11.25;11.00;;;;;32.79;41.11;100548.66;146603;718;46016;-67
2023/07/03 11:25:50;;;;;;;;;12.00;10.67;;;;;32.84;39.30;100547.50;146615;590;46010;-66
2023/07/03 11:28:53;;;;;;;;;11.00;10.33;;;;;32.93;40.99;100542.66;146607;592;47012;-66
2023/07/03 11:31:50;;;;;;;;;11.33;11.33;;;;;32.97;39.99;100547.88;146611;625;47014;-66
2023/07/03 11:34:43;;;;;;;;;11.75;11.75;;;;;33.03;38.43;100549.41;146605;624;46016;-67
2023/07/03 11:37:52;;;;;;;;;10.33;10.33;;;;;33.02;42.02;100543.19;146612;643;47010;-66
2023/07/03 11:41:38;;;;;;;;;15.75;11.75;;;;;33.01;40.78;100530.66;146609;630;46017;-66
2023/07/03 11:44:42;;;;;;;;;11.00;9.67;;;;;33.14;40.57;100544.41;146609;646;47012;-66
2023/07/03 11:47:41;;;;;;;;;10.00;10.00;;;;;33.14;38.18;100536.34;146610;578;47914;-68
2023/07/03 11:50:42;;;;;;;;;12.00;10.33;;;;;33.17;39.10;100532.66;146613;625;46020;-66
2023/07/03 11:53:43;;;;;;;;;10.25;9.25;;;;;33.17;40.48;100538.03;146604;603;46016;-66
2023/07/03 11:57:00;;;;;;;;;12.25;10.25;;;;;33.11;42.05;100532.00;146618;676;46020;-64
2023/07/03 11:59:58;;;;;;;;;10.33;10.33;;;;;33.05;39.31;100532.28;146607;593;46016;-67
2023/07/03 12:03:14;;;;;;;;;13.00;11.00;;;;;32.84;36.71;100523.34;146609;572;47010;-66
2023/07/03 12:06:31;;;;;;;;;11.00;11.00;;;;;32.77;39.15;100531.72;146609;624;46012;-67
2023/07/03 12:09:39;;;;;;;;;9.33;9.00;;;;;32.72;38.41;100529.25;146614;669;46021;-66
2023/07/03 12:12:36;;;;;;;;;12.00;10.33;;;;;32.65;39.14;100522.41;146610;639;46016;-67
2023/07/03 12:15:39;;;;;;;;;14.75;13.00;;;;;32.63;40.35;100529.66;146611;564;47010;-67
2023/07/03 12:18:37;;;;;;;;;8.33;8.33;;;;;32.64;37.69;100520.66;146609;595;47016;-66
2023/07/03 12:21:38;;;;;;;;;11.00;10.33;;;;;32.65;37.90;100519.75;146611;652;49010;-66
2023/07/03 12:24:42;;;;;;;;;10.00;9.33;;;;;32.66;41.09;100521.47;146605;575;47914;-66
2023/07/03 12:27:44;;;;;;;;;14.33;11.00;;;;;32.73;39.03;100524.75;146618;583;46020;-68
2023/07/03 12:30:44;;;;;;;;;10.50;10.00;;;;;32.79;39.59;100516.44;146606;608;47012;-67
2023/07/03 12:34:01;;;;;;;;;12.25;11.50;;;;;31.85;40.70;100335.31;146612;569;46031;-69
2023/07/03 12:37:20;;;;;;;;;11.33;11.33;;;;;32.94;40.68;100515.75;146608;606;46012;-67
2023/07/03 12:40:34;;;;;;;;;13.25;12.25;;;;;32.92;43.11;100522.13;146610;638;46021;-67
2023/07/03 12:43:36;;;;;;;;;13.00;11.00;;;;;32.83;39.30;100515.34;146606;625;46016;-68
2023/07/03 12:46:48;;;;;;;;;14.33;13.00;;;;;32.66;40.44;100513.41;146611;645;46010;-67
2023/07/03 12:50:12;;;;;;;;;13.00;11.25;;;;;32.49;41.45;100487.28;146605;574;47016;-68
2023/07/03 12:53:14;;;;;;;;;10.25;9.25;;;;;32.65;40.19;100511.69;146611;579;46021;-67
2023/07/03 12:56:20;;;;;;;;;8.75;7.75;;;;;32.69;38.51;100515.97;146613;668;47012;-69
2023/07/03 12:59:26;;;;;;;;;12.25;12.25;;;;;32.68;35.81;100511.56;146622;580;46021;-66
2023/07/03 13:02:41;;;;;;;;;12.25;11.25;;;;;32.59;41.14;100512.81;146608;673;46016;-67
2023/07/03 13:05:50;;;;;;;;;13.50;13.00;;;;;32.46;40.10;100497.28;146612;598;47012;-67
2023/07/03 13:09:04;;;;;;;;;11.50;11.00;;;;;32.43;40.53;100492.88;146608;569;46017;-68
2023/07/03 13:12:05;;;;;;;;;9.75;9.75;;;;;32.49;39.76;100498.03;146610;586;48020;-67
2023/07/03 13:15:30;;;;;;;;;13.00;11.00;;;;;32.53;42.50;100502.34;146613;611;47012;-67
2023/07/03 13:18:57;;;;;;;;;13.25;11.75;;;;;32.51;42.94;100511.41;146608;699;47012;-68
2023/07/03 13:22:18;;;;;;;;;14.25;12.75;;;;;32.48;43.13;100490.06;146607;565;46012;-66
2023/07/03 13:25:24;;;;;;;;;15.25;13.75;;;;;32.40;43.13;100498.37;146610;642;46020;-66
2023/07/03 13:28:31;;;;;;;;;12.00;11.75;;;;;32.28;42.79;100501.63;146607;578;46016;-66
2023/07/03 13:31:34;;;;;;;;;14.00;12.00;;;;;32.16;41.33;100514.59;146611;685;47020;-66
2023/07/03 13:34:37;;;;;;;;;13.50;12.50;;;;;32.08;42.04;100503.31;146608;631;47912;-67
2023/07/03 13:37:34;;;;;;;;;11.75;10.75;;;;;32.04;42.41;100503.50;146608;589;47010;-67
2023/07/03 13:40:31;;;;;;;;;14.00;12.50;;;;;32.02;41.88;100510.75;146601;599;47014;-66
2023/07/03 13:43:38;;;;;;;;;12.50;12.50;;;;;32.01;43.35;100509.88;146606;676;46010;-67
2023/07/03 13:46:38;;;;;;;;;14.25;12.00;;;;;32.01;41.67;100512.56;146601;657;47012;-67
2023/07/03 13:49:40;;;;;;;;;10.75;10.75;;;;;32.01;43.24;100501.81;146608;676;47047;-66
2023/07/03 13:52:36;;;;;;;;;15.25;13.00;;;;;32.03;43.58;100507.16;146601;615;47012;-67
2023/07/03 13:55:53;;;;;;;;;12.25;12.25;;;;;31.97;43.13;100506.44;146607;718;46020;-67